Time;durP1;ratioP1;P1;durP2;ratioP2;P2;SDS_P1;SDS_P2;PMS_P1;PMS_P2;Temp;Humidity;BMP_temperature;BMP_pressure;BME280_temperature;BME280_humidity;BME280_pressure;Samples;Min_cycle;Max_cycle;Signal;HPM_P1;HPM_P2
2022/05/27 00:02:19;;;;;;;1.00;1.00;;;;;;;16.50;62.22;101470.19;5158018;28;20033;-79
2022/05/27 00:04:49;;;;;;;0.28;0.28;;;;;;;16.56;61.75;101480.56;5137018;28;20037;-79
2022/05/27 00:07:20;;;;;;;15.43;0.55;;;;;;;16.54;61.21;101466.50;5178143;28;20398;-78
2022/05/27 00:09:50;;;;;;;0.40;0.40;;;;;;;16.52;61.62;101474.53;5174829;28;20038;-81
2022/05/27 00:12:21;;;;;;;0.20;0.20;;;;;;;16.41;62.40;101460.84;5142238;28;20053;-79
2022/05/27 00:14:51;;;;;;;0.30;0.30;;;;;;;16.39;62.17;101467.97;5140469;28;20085;-79
2022/05/27 00:17:22;;;;;;;0.60;0.60;;;;;;;16.45;62.42;101461.59;5142662;28;20028;-79
2022/05/27 00:19:53;;;;;;;0.50;0.50;;;;;;;16.42;61.68;101459.03;5175349;28;20030;-80
2022/05/27 00:22:24;;;;;;;0.63;0.63;;;;;;;16.46;62.50;101458.03;5142002;28;20030;-80
2022/05/27 00:24:54;;;;;;;0.30;0.30;;;;;;;16.22;63.31;101450.13;5175902;28;20045;-79
2022/05/27 00:27:25;;;;;;;0.20;0.20;;;;;;;16.23;63.43;101456.28;5149126;28;20033;-78
2022/05/27 00:29:55;;;;;;;0.25;0.25;;;;;;;16.26;63.28;101457.00;5172045;28;20030;-78
2022/05/27 00:32:26;;;;;;;0.30;0.30;;;;;;;16.26;63.46;101466.75;5162080;28;20025;-78
2022/05/27 00:34:57;;;;;;;0.25;0.25;;;;;;;16.24;63.15;101458.84;5190850;28;20038;-79
2022/05/27 00:37:27;;;;;;;0.30;0.30;;;;;;;16.19;63.42;101455.53;5160641;28;20022;-78
2022/05/27 00:39:58;;;;;;;3.42;0.43;;;;;;;15.99;64.26;101465.09;5159003;28;20041;-79
2022/05/27 00:42:28;;;;;;;0.60;0.60;;;;;;;16.01;64.06;101447.38;5175969;28;20381;-78
2022/05/27 00:44:59;;;;;;;0.50;0.50;;;;;;;15.98;64.06;101468.69;5156778;28;20687;-79
2022/05/27 00:47:33;;;;;;;2.17;1.92;;;;;;;15.99;63.97;101465.09;5139409;28;20061;-78
2022/05/27 00:50:08;;;;;;;0.38;0.38;;;;;;;16.05;63.84;101453.41;5143944;28;20084;-78
2022/05/27 00:52:41;;;;;;;0.20;0.20;;;;;;;16.06;63.39;101460.44;5162512;28;20034;-79
2022/05/27 00:55:21;;;;;;;0.30;0.30;;;;;;;16.19;62.96;101463.47;5177538;28;20460;-80
2022/05/27 00:58:02;;;;;;;1.90;0.40;;;;;;;16.17;63.36;101454.72;5179364;28;20292;-79
2022/05/27 01:00:33;;;;;;;0.88;0.88;;;;;;;16.18;63.00;101461.75;5139236;28;20755;-79
2022/05/27 01:03:05;;;;;;;0.25;0.25;;;;;;;16.18;62.67;101461.75;5161695;28;20030;-78
2022/05/27 01:05:36;;;;;;;0.85;0.82;;;;;;;16.21;63.66;101459.00;5179159;28;20049;-79
2022/05/27 01:08:09;;;;;;;0.30;0.30;;;;;;;16.01;65.83;101449.16;5145237;28;20045;-78
2022/05/27 01:11:01;;;;;;;0.40;0.40;;;;;;;16.04;65.89;101446.38;5173098;28;20100;-78
2022/05/27 01:13:43;;;;;;;18.45;0.85;;;;;;;15.97;66.16;101450.19;5158446;28;20750;-79
2022/05/27 01:16:24;;;;;;;0.30;0.30;;;;;;;15.99;65.03;101449.22;5159231;28;20570;-80
2022/05/27 01:22:27;;;;;;;0.30;0.30;;;;;;;15.90;66.60;101454.88;5159406;28;20407;-79
2022/05/27 01:25:19;;;;;;;0.40;0.40;;;;;;;15.89;65.92;101438.13;5175380;28;20050;-79
2022/05/27 01:28:12;;;;;;;0.30;0.30;;;;;;;15.86;66.51;101447.97;5168328;28;20026;-79
2022/05/27 01:30:56;;;;;;;0.30;0.30;;;;;;;15.93;65.93;101438.88;5156090;28;20060;-79
2022/05/27 01:33:44;;;;;;;0.30;0.30;;;;;;;15.72;66.50;101441.38;5172714;28;20096;-78
2022/05/27 01:36:33;;;;;;;4.85;0.95;;;;;;;15.70;66.06;101440.56;5158553;28;20494;-78
2022/05/27 01:39:03;;;;;;;0.30;0.30;;;;;;;15.79;64.94;101433.22;5176268;28;20383;-78
2022/05/27 01:41:43;;;;;;;0.20;0.20;;;;;;;15.73;65.66;101431.66;5143990;28;20117;-79
2022/05/27 01:44:35;;;;;;;0.30;0.30;;;;;;;15.71;65.76;101431.72;5144639;28;20626;-80
2022/05/27 01:47:10;;;;;;;0.20;0.20;;;;;;;15.68;65.81;101430.97;5161645;28;20052;-79
2022/05/27 01:49:49;;;;;;;0.22;0.22;;;;;;;15.58;66.05;101427.78;5154175;28;20045;-79
2022/05/27 01:52:26;;;;;;;0.35;0.35;;;;;;;15.60;65.94;101423.31;5160242;28;20689;-78
2022/05/27 01:54:56;;;;;;;0.50;0.50;;;;;;;15.67;66.39;101421.31;5165640;28;20065;-79
2022/05/27 01:57:29;;;;;;;0.30;0.30;;;;;;;15.52;65.96;101422.72;5143069;28;20117;-78
2022/05/27 02:00:05;;;;;;;1.77;1.65;;;;;;;15.30;66.93;101418.22;5159125;28;20465;-78
2022/05/27 02:02:43;;;;;;;0.60;0.60;;;;;;;15.54;65.68;101418.25;5148037;28;20033;-79
2022/05/27 02:05:51;;;;;;;0.38;0.38;;;;;;;15.62;65.14;101423.28;5158462;28;20042;-80
2022/05/27 02:08:27;;;;;;;0.57;0.57;;;;;;;15.56;65.60;101421.72;5164979;28;20025;-79
2022/05/27 02:11:19;;;;;;;1.20;0.30;;;;;;;15.52;66.15;101428.00;5160656;28;20045;-78
2022/05/27 02:14:08;;;;;;;1.27;0.50;;;;;;;15.49;66.31;101422.84;5143251;28;20034;-79
2022/05/27 02:16:41;;;;;;;0.82;0.82;;;;;;;15.56;65.90;101419.06;5159872;28;20125;-78
2022/05/27 02:19:35;;;;;;;0.55;0.55;;;;;;;15.45;67.33;101421.22;5166431;28;20080;-79
2022/05/27 02:22:38;;;;;;;0.68;0.68;;;;;;;15.44;67.72;101423.03;5159204;28;20619;-79
2022/05/27 02:25:15;;;;;;;0.25;0.25;;;;;;;15.48;67.79;101429.06;5140719;28;20045;-78
2022/05/27 02:28:13;;;;;;;0.50;0.50;;;;;;;15.60;67.02;101431.25;5158934;28;20029;-78
2022/05/27 02:30:48;;;;;;;0.40;0.40;;;;;;;15.56;67.54;101430.50;5177309;28;20083;-78
2022/05/27 02:36:19;;;;;;;0.40;0.40;;;;;;;15.35;69.92;101424.19;5173810;28;20592;-79
2022/05/27 02:38:49;;;;;;;0.30;0.30;;;;;;;15.33;70.39;101428.66;5160946;28;20042;-79
2022/05/27 02:41:46;;;;;;;1.38;0.40;;;;;;;15.33;70.44;101423.38;5164472;28;20613;-79
2022/05/27 02:44:41;;;;;;;0.40;0.40;;;;;;;15.43;69.32;101422.13;5152209;28;20041;-79
2022/05/27 02:47:18;;;;;;;0.20;0.20;;;;;;;15.50;69.01;101417.50;5175447;28;20033;-80
2022/05/27 02:50:05;;;;;;;0.32;0.32;;;;;;;15.13;72.03;101423.25;5127759;28;20038;-78
2022/05/27 02:53:11;;;;;;;0.60;0.60;;;;;;;15.16;71.32;101417.84;5178558;28;20022;-79
2022/05/27 02:55:53;;;;;;;0.20;0.20;;;;;;;15.03;72.51;101423.56;5164397;28;20703;-81
2022/05/27 02:58:24;;;;;;;0.50;0.50;;;;;;;14.89;72.89;101428.47;5141270;28;20025;-79
2022/05/27 03:00:54;;;;;;;0.30;0.25;;;;;;;14.95;73.01;101423.84;5165765;28;20092;-80
2022/05/27 03:03:26;;;;;;;0.57;0.57;;;;;;;15.08;72.09;101423.41;5143747;28;20472;-79
2022/05/27 03:06:13;;;;;;;2.30;1.85;;;;;;;15.02;71.45;101418.34;5157559;28;20040;-78
2022/05/27 03:08:47;;;;;;;1.58;1.35;;;;;;;14.94;73.34;101414.19;5155025;28;20129;-80
2022/05/27 03:11:47;;;;;;;0.30;0.30;;;;;;;15.03;72.61;101409.50;5147396;28;20514;-81
2022/05/27 03:14:20;;;;;;;0.52;0.52;;;;;;;14.71;74.20;101414.94;5118245;28;20073;-78
2022/05/27 03:17:25;;;;;;;0.30;0.30;;;;;;;14.72;74.27;101416.69;5182147;28;20128;-80
2022/05/27 03:20:07;;;;;;;0.88;0.85;;;;;;;14.73;74.17;101409.59;5124040;28;20483;-78
2022/05/27 03:22:49;;;;;;;0.50;0.50;;;;;;;14.74;74.55;101401.66;5176598;28;20041;-78
2022/05/27 03:25:23;;;;;;;0.20;0.20;;;;;;;14.85;73.52;101403.91;5156159;28;20042;-80
2022/05/27 03:28:10;;;;;;;0.30;0.30;;;;;;;14.87;72.78;101403.88;5157455;28;20065;-80
2022/05/27 03:30:52;;;;;;;1.00;0.40;;;;;;;14.86;74.01;101404.78;5157329;28;20130;-78
2022/05/27 03:33:35;;;;;;;0.32;0.32;;;;;;;14.85;73.15;101405.69;5182102;28;20534;-78
2022/05/27 03:36:15;;;;;;;0.82;0.82;;;;;;;14.81;74.47;101412.84;5173018;28;20042;-80
2022/05/27 03:39:00;;;;;;;0.40;0.40;;;;;;;14.98;71.76;101414.06;5161031;28;20527;-78
2022/05/27 03:41:36;;;;;;;0.20;0.20;;;;;;;14.90;73.46;101412.53;5138630;28;20050;-79
2022/05/27 03:44:14;;;;;;;0.50;0.50;;;;;;;14.73;75.40;101412.25;5140788;28;20049;-79
2022/05/27 03:46:48;;;;;;;0.30;0.30;;;;;;;14.58;76.45;101409.19;5165032;28;20037;-79
2022/05/27 03:49:18;;;;;;;0.40;0.40;;;;;;;14.62;75.65;101399.38;5175449;28;20033;-78
2022/05/27 03:52:02;;;;;;;0.40;0.40;;;;;;;14.68;75.58;101411.56;5175992;28;20455;-79
2022/05/27 03:54:33;;;;;;;1.30;0.90;;;;;;;14.67;75.91;101405.38;5156660;28;20042;-80
2022/05/27 03:57:04;;;;;;;0.40;0.40;;;;;;;14.62;76.01;101405.53;5157736;28;20026;-78
2022/05/27 03:59:34;;;;;;;0.45;0.45;;;;;;;14.60;76.17;101404.72;5159022;28;20096;-78
2022/05/27 04:02:06;;;;;;;0.60;0.52;;;;;;;14.61;76.19;101408.22;5143503;28;20077;-78
2022/05/27 04:04:36;;;;;;;0.55;0.55;;;;;;;14.50;77.37;101410.34;5144221;28;20103;-78
2022/05/27 04:07:07;;;;;;;0.25;0.25;;;;;;;14.73;75.23;101407.84;5146449;28;20121;-78
2022/05/27 04:09:37;;;;;;;0.30;0.30;;;;;;;14.56;77.13;101396.94;5154500;28;20052;-78
2022/05/27 04:12:08;;;;;;;0.40;0.40;;;;;;;14.53;77.51;101397.03;5159087;28;20030;-80
2022/05/27 04:14:38;;;;;;;0.38;0.38;;;;;;;14.44;77.14;101401.69;5140832;28;20556;-78
2022/05/27 04:20:09;;;;;;;0.40;0.40;;;;;;;14.70;76.44;101396.53;5156882;28;20122;-79
2022/05/27 04:22:41;;;;;;;1.85;0.60;;;;;;;14.56;76.80;101405.72;5145115;28;20036;-78
2022/05/27 04:25:12;;;;;;;0.73;0.73;;;;;;;14.54;77.98;101406.69;5176871;28;20103;-78
2022/05/27 04:27:43;;;;;;;0.30;0.30;;;;;;;14.50;77.96;101405.91;5180231;28;20064;-79
2022/05/27 04:30:14;;;;;;;0.32;0.32;;;;;;;14.39;79.10;101402.75;5165901;28;20041;-79
2022/05/27 04:32:45;;;;;;;0.40;0.40;;;;;;;14.24;79.98;101393.56;5166381;28;20088;-79
2022/05/27 04:35:15;;;;;;;0.30;0.30;;;;;;;14.25;79.96;101392.66;5165064;28;20053;-79
2022/05/27 04:37:46;;;;;;;0.85;0.85;;;;;;;14.37;79.44;101388.75;5151118;28;20057;-80
2022/05/27 04:40:17;;;;;;;0.30;0.30;;;;;;;14.31;79.48;101390.66;5163244;28;20034;-79
2022/05/27 04:42:47;;;;;;;1.13;1.05;;;;;;;14.32;78.47;101396.84;5138656;28;20065;-78
2022/05/27 04:45:20;;;;;;;0.30;0.30;;;;;;;14.38;78.27;101388.72;5163809;28;20045;-79
2022/05/27 04:47:51;;;;;;;0.25;0.25;;;;;;;14.17;80.93;101392.91;5175166;28;20104;-79
2022/05/27 04:50:22;;;;;;;0.30;0.30;;;;;;;14.20;80.13;101392.81;5182509;28;20064;-80
2022/05/27 04:52:53;;;;;;;0.35;0.35;;;;;;;14.27;80.26;101396.09;5169055;28;20025;-80
2022/05/27 04:55:24;;;;;;;0.52;0.52;;;;;;;14.25;80.70;101390.03;5178381;28;20156;-80
2022/05/27 04:57:55;;;;;;;0.57;0.57;;;;;;;14.32;79.20;101396.84;5160659;28;20037;-81
2022/05/27 05:00:30;;;;;;;0.50;0.50;;;;;;;14.20;80.41;101390.16;5177550;28;20037;-80
2022/05/27 05:03:00;;;;;;;0.38;0.38;;;;;;;14.37;79.70;101397.53;5186205;28;20053;-80
2022/05/27 05:05:33;;;;;;;0.38;0.38;;;;;;;14.42;78.09;101403.53;5151046;28;21062;-80
2022/05/27 05:08:07;;;;;;;0.30;0.30;;;;;;;14.31;80.56;101401.22;5171597;28;20033;-81
2022/05/27 05:10:38;;;;;;;0.70;0.70;;;;;;;14.43;78.86;101405.25;5185026;28;20057;-80
2022/05/27 05:13:09;;;;;;;1.75;0.85;;;;;;;14.46;79.62;101401.69;5148219;28;20080;-80
2022/05/27 05:15:39;;;;;;;0.98;0.93;;;;;;;14.62;76.55;101409.94;5160534;28;20112;-78
2022/05/27 05:18:10;;;;;;;0.60;0.60;;;;;;;14.69;76.48;101408.84;5179585;28;20041;-78
2022/05/27 05:20:41;;;;;;;0.60;0.60;;;;;;;14.69;75.85;101424.69;5183146;28;20052;-78
2022/05/27 05:23:11;;;;;;;0.35;0.35;;;;;;;14.78;77.20;101420.91;5157472;28;20371;-79
2022/05/27 05:25:42;;;;;;;0.63;0.60;;;;;;;14.85;75.68;101421.53;5160781;28;20100;-78
2022/05/27 05:28:12;;;;;;;0.47;0.47;;;;;;;14.85;75.31;101416.25;5182364;28;20328;-78
2022/05/27 05:30:43;;;;;;;0.30;0.30;;;;;;;14.89;73.98;101428.47;5172450;28;20042;-81
2022/05/27 05:33:13;;;;;;;0.60;0.60;;;;;;;15.03;74.70;101426.19;5147052;28;20022;-81
2022/05/27 05:35:46;;;;;;;0.30;0.30;;;;;;;15.03;74.81;101430.63;5168870;28;20049;-82
2022/05/27 05:38:17;;;;;;;0.33;0.33;;;;;;;15.02;75.50;101428.91;5166416;28;20030;-82
2022/05/27 05:40:49;;;;;;;0.43;0.43;;;;;;;15.05;74.65;101434.06;5180659;28;20301;-81
2022/05/27 05:43:20;;;;;;;0.30;0.30;;;;;;;15.04;75.62;101440.28;5165737;28;20059;-83
2022/05/27 05:45:50;;;;;;;1.60;0.40;;;;;;;14.97;75.98;101437.00;5166844;28;20105;-82
2022/05/27 05:48:21;;;;;;;0.82;0.65;;;;;;;15.05;75.06;101434.94;5168942;28;20115;-82
2022/05/27 05:50:51;;;;;;;0.30;0.30;;;;;;;15.00;74.08;101447.44;5172263;28;20029;-83
2022/05/27 05:53:24;;;;;;;0.30;0.30;;;;;;;15.05;73.86;101450.81;5172938;28;20025;-83
2022/05/27 05:55:58;;;;;;;0.20;0.20;;;;;;;14.97;74.37;101449.31;5173024;28;20105;-83
2022/05/27 05:58:28;;;;;;;0.32;0.32;;;;;;;15.02;73.08;101455.34;5152622;28;20089;-81
2022/05/27 06:00:59;;;;;;;0.52;0.52;;;;;;;15.10;73.48;101450.66;5173824;28;20066;-82
2022/05/27 06:03:29;;;;;;;1.55;0.57;;;;;;;15.19;73.17;101447.69;5169584;28;20341;-82
2022/05/27 06:06:00;;;;;;;0.40;0.40;;;;;;;15.10;72.98;101451.50;5171870;28;20045;-82
2022/05/27 06:08:31;;;;;;;1.02;0.70;;;;;;;15.07;72.75;101453.38;5147522;28;20121;-83
2022/05/27 06:11:05;;;;;;;0.30;0.30;;;;;;;15.15;71.84;101450.50;5162170;28;20022;-82
2022/05/27 06:13:36;;;;;;;0.20;0.20;;;;;;;15.11;72.22;101461.16;5183132;28;20394;-83
2022/05/27 06:16:09;;;;;;;0.45;0.45;;;;;;;15.10;72.49;101467.34;5194769;28;20046;-82
2022/05/27 06:18:40;;;;;;;0.32;0.32;;;;;;;15.06;71.77;101464.88;5194596;28;20330;-81
2022/05/27 06:21:10;;;;;;;0.40;0.40;;;;;;;15.11;72.62;101471.72;5166260;28;20030;-81
2022/05/27 06:23:41;;;;;;;0.32;0.32;;;;;;;15.14;71.85;101464.63;5166143;28;20026;-81
2022/05/27 06:26:13;;;;;;;0.28;0.28;;;;;;;15.16;71.28;101473.38;5162593;28;20049;-80
2022/05/27 06:34:26;;;;;;;0.43;0.43;;;;;;;15.20;70.76;101480.25;5174503;28;20091;-80
2022/05/27 06:37:02;;;;;;;0.30;0.30;;;;;;;15.27;71.42;101476.47;5154537;28;20383;-81
2022/05/27 06:39:35;;;;;;;0.30;0.30;;;;;;;15.26;70.52;101477.41;5163328;28;20064;-81
2022/05/27 06:42:08;;;;;;;;;;;;;;;15.27;70.66;101484.41;5161077;28;20046;-81
2022/05/27 06:44:38;;;;;;;0.60;0.60;;;;;;;15.36;70.47;101484.09;5161228;28;20354;-81
2022/05/27 06:47:10;;;;;;;0.47;0.47;;;;;;;15.37;70.35;101492.91;5176388;28;20103;-81
2022/05/27 06:49:43;;;;;;;9.25;0.63;;;;;;;15.34;70.04;101493.00;5156608;28;20065;-82
2022/05/27 06:52:15;;;;;;;0.30;0.30;;;;;;;15.34;70.01;101493.84;5178291;28;20140;-82
2022/05/27 06:54:45;;;;;;;0.28;0.28;;;;;;;15.42;70.21;101489.16;5155143;28;20038;-81
2022/05/27 06:57:16;;;;;;;0.32;0.32;;;;;;;15.40;71.26;101498.94;5137134;28;20018;-82
2022/05/27 06:59:47;;;;;;;0.30;0.30;;;;;;;15.33;71.12;101497.41;5172875;28;20057;-81
2022/05/27 07:02:18;;;;;;;0.20;0.20;;;;;;;15.20;71.09;101494.34;5164848;28;20932;-82
2022/05/27 07:04:48;;;;;;;0.30;0.30;;;;;;;15.25;71.17;101494.16;5166019;28;20041;-82
2022/05/27 07:07:21;;;;;;;0.55;0.55;;;;;;;15.27;70.18;101492.34;5170356;28;20049;-81
2022/05/27 07:09:51;;;;;;;0.43;0.43;;;;;;;15.27;70.06;101489.69;5182997;28;20152;-82
2022/05/27 07:12:22;;;;;;;0.35;0.35;;;;;;;15.30;69.77;101484.31;5182780;28;20033;-82
2022/05/27 07:14:52;;;;;;;0.20;0.20;;;;;;;15.37;69.70;101488.47;5160427;28;20038;-82
2022/05/27 07:17:23;;;;;;;1.25;0.98;;;;;;;15.32;70.82;101489.53;5166912;28;20183;-82
2022/05/27 07:19:53;;;;;;;0.30;0.30;;;;;;;15.33;70.39;101494.78;5192337;28;20236;-82
2022/05/27 07:22:25;;;;;;;0.30;0.30;;;;;;;15.43;70.20;101490.03;5172876;28;20388;-80
2022/05/27 07:24:56;;;;;;;0.30;0.30;;;;;;;15.46;69.58;101491.72;5167485;28;20097;-81
2022/05/27 07:27:26;;;;;;;0.65;0.65;;;;;;;15.54;69.52;101489.66;5151154;28;20052;-81
2022/05/27 07:29:57;;;;;;;0.50;0.38;;;;;;;15.54;70.67;101487.88;5189489;28;20037;-82
2022/05/27 07:32:27;;;;;;;0.47;0.47;;;;;;;15.54;72.00;101479.06;5176200;28;20026;-83
2022/05/27 07:34:58;;;;;;;0.30;0.30;;;;;;;15.51;71.08;101482.69;5165719;28;20041;-81
2022/05/27 07:37:28;;;;;;;0.28;0.28;;;;;;;15.59;71.50;101490.34;5168829;28;20750;-81
2022/05/27 07:39:59;;;;;;;0.40;0.40;;;;;;;15.58;72.71;101476.28;5147754;28;20049;-81
2022/05/27 07:42:32;;;;;;;0.30;0.30;;;;;;;15.71;70.79;101471.41;5147428;28;20046;-81
2022/05/27 07:45:03;;;;;;;0.30;0.30;;;;;;;15.76;71.67;101486.22;5153227;28;20188;-80
2022/05/27 07:47:34;;;;;;;0.68;0.68;;;;;;;15.79;72.70;101476.38;5180966;28;20026;-80
2022/05/27 07:50:07;;;;;;;0.47;0.47;;;;;;;15.68;73.65;101483.88;5181387;28;20204;-81
2022/05/27 07:52:37;;;;;;;0.77;0.77;;;;;;;15.85;72.17;101488.56;5189872;28;20034;-81
2022/05/27 07:55:09;;;;;;;1.17;0.65;;;;;;;15.90;71.45;101489.28;5174322;28;20049;-81
2022/05/27 07:57:42;;;;;;;0.45;0.45;;;;;;;15.93;72.68;101483.84;5183687;28;20097;-81
2022/05/27 08:00:16;;;;;;;1.75;0.52;;;;;;;15.91;74.52;101498.91;5179832;28;20256;-81
2022/05/27 08:02:46;;;;;;;0.47;0.47;;;;;;;15.96;74.54;101493.47;5146238;28;20034;-81
2022/05/27 08:05:20;;;;;;;1.10;0.95;;;;;;;16.07;72.46;101496.56;5144923;28;20105;-81
2022/05/27 08:07:52;;;;;;;0.30;0.30;;;;;;;16.08;74.75;101498.31;5164550;28;20026;-82
2022/05/27 08:10:27;;;;;;;0.40;0.40;;;;;;;16.15;73.16;101497.16;5173783;28;20038;-80
2022/05/27 08:12:58;;;;;;;0.55;0.40;;;;;;;16.26;73.55;101499.38;5168668;28;20022;-79
2022/05/27 08:15:29;;;;;;;0.55;0.55;;;;;;;16.31;74.00;101492.13;5168520;28;20504;-81
2022/05/27 08:17:59;;;;;;;1.38;0.60;;;;;;;16.31;73.88;101492.13;5166782;28;20031;-82
2022/05/27 08:20:33;;;;;;;6.70;1.33;;;;;;;16.25;74.96;101488.84;5137303;28;20053;-81
2022/05/27 08:23:03;;;;;;;0.30;0.30;;;;;;;16.21;75.26;101486.31;5167429;28;20033;-82
2022/05/27 08:25:36;;;;;;;0.63;0.63;;;;;;;16.26;74.73;101488.78;5143635;28;20240;-82
2022/05/27 08:28:07;;;;;;;0.47;0.47;;;;;;;16.33;74.89;101484.13;5164356;28;20135;-81
2022/05/27 08:30:40;;;;;;;0.32;0.32;;;;;;;16.38;74.33;101486.59;5178152;28;20072;-81
2022/05/27 08:33:10;;;;;;;0.40;0.40;;;;;;;16.54;72.97;101487.72;5145470;28;20026;-81
2022/05/27 08:38:34;;;;;;;0.45;0.45;;;;;;;16.65;70.68;101488.13;5180818;28;20034;-80
2022/05/27 08:41:41;;;;;;;0.50;0.50;;;;;;;16.67;70.30;101488.94;5145997;28;20060;-81
2022/05/27 08:44:25;;;;;;;2.60;1.20;;;;;;;16.60;68.83;101491.91;5170737;28;20076;-83
2022/05/27 08:47:19;;;;;;;0.52;0.35;;;;;;;16.67;68.84;101501.31;5182954;28;20095;-83
2022/05/27 08:50:20;;;;;;;0.40;0.40;;;;;;;16.67;69.07;101496.03;5163911;28;20038;-82
2022/05/27 08:52:57;;;;;;;0.40;0.40;;;;;;;16.73;68.83;101493.13;5183153;28;20061;-83
2022/05/27 09:01:29;;;;;;;0.20;0.20;;;;;;;16.80;68.13;101486.63;5186969;28;20053;-82
2022/05/27 09:04:07;;;;;;;0.35;0.35;;;;;;;16.86;68.36;101493.47;5164961;28;20023;-83
2022/05/27 09:06:55;;;;;;;0.40;0.40;;;;;;;16.79;67.20;101497.31;5158532;28;20157;-85
2022/05/27 09:09:28;;;;;;;0.75;0.75;;;;;;;16.82;65.89;101491.88;5181004;28;20037;-84
2022/05/27 09:12:37;;;;;;;0.60;0.60;;;;;;;16.87;65.98;101492.56;5166520;28;20019;-83
2022/05/27 09:15:44;;;;;;;0.47;0.47;;;;;;;16.86;67.18;101495.28;5095892;28;20067;-83
2022/05/27 09:18:26;;;;;;;0.40;0.40;;;;;;;16.80;68.15;101491.09;5121825;28;20023;-84
2022/05/27 09:21:18;;;;;;;0.40;0.40;;;;;;;16.78;67.76;101487.63;5169261;28;20041;-83
2022/05/27 09:23:55;;;;;;;0.30;0.30;;;;;;;16.99;66.23;101481.47;5143124;28;20034;-84
2022/05/27 09:26:44;;;;;;;0.55;0.55;;;;;;;16.86;65.59;101488.19;5192686;28;20341;-81
2022/05/27 09:29:44;;;;;;;0.50;0.50;;;;;;;16.92;66.11;101482.63;5146673;28;20319;-83
2022/05/27 09:32:25;;;;;;;0.30;0.30;;;;;;;16.93;66.73;101489.69;5176160;28;20233;-83
2022/05/27 09:35:01;;;;;;;0.47;0.47;;;;;;;16.95;66.53;101485.19;5183046;28;20073;-82
2022/05/27 09:37:37;;;;;;;2.67;1.20;;;;;;;17.07;66.67;101486.47;5195105;28;20056;-81
2022/05/27 09:40:18;;;;;;;0.75;0.73;;;;;;;17.10;66.03;101490.75;5194895;28;20050;-83
2022/05/27 09:42:58;;;;;;;0.50;0.50;;;;;;;17.14;65.53;101487.91;5153256;28;20038;-84
2022/05/27 09:45:29;;;;;;;0.75;0.75;;;;;;;17.22;65.43;101484.97;5128668;28;20046;-83
2022/05/27 09:48:04;;;;;;;0.38;0.38;;;;;;;17.35;64.60;101490.59;5166353;28;20026;-80
2022/05/27 09:50:45;;;;;;;0.90;0.90;;;;;;;17.42;63.44;101481.44;5142334;28;20061;-83
2022/05/27 09:53:50;;;;;;;0.30;0.30;;;;;;;17.41;63.72;101487.66;5150307;28;20546;-85
2022/05/27 09:56:54;;;;;;;0.47;0.47;;;;;;;17.43;64.25;101475.19;5161279;28;20046;-82
2022/05/27 09:59:25;;;;;;;;;;;;;;;17.41;62.96;101473.53;5171246;28;20037;-83
2022/05/27 10:02:15;;;;;;;0.28;0.28;;;;;;;17.33;61.54;101471.22;5146691;28;20319;-83
2022/05/27 10:04:58;;;;;;;0.30;0.30;;;;;;;17.42;61.55;101480.56;5180158;28;20125;-80
2022/05/27 10:07:31;;;;;;;0.55;0.55;;;;;;;17.29;60.90;101474.91;5146424;28;20219;-80
2022/05/27 10:10:31;;;;;;;0.30;0.30;;;;;;;17.34;61.40;101466.75;5168814;28;20082;-86
2022/05/27 10:13:30;;;;;;;0.52;0.52;;;;;;;17.45;61.30;101475.13;5166750;28;20034;-84
2022/05/27 10:16:10;;;;;;;11.50;0.90;;;;;;;17.54;60.52;101468.53;5141410;28;20168;-81
2022/05/27 10:18:44;;;;;;;1.45;0.50;;;;;;;17.61;60.88;101470.88;5159748;28;20123;-82
2022/05/27 10:21:19;;;;;;;0.50;0.50;;;;;;;17.69;59.70;101464.34;5160852;28;20065;-81
2022/05/27 10:23:54;;;;;;;1.23;1.13;;;;;;;17.62;59.85;101467.28;5179192;28;20030;-82
2022/05/27 10:26:29;;;;;;;0.30;0.30;;;;;;;17.67;59.10;101479.47;5146845;28;20034;-81
2022/05/27 10:29:16;;;;;;;0.20;0.20;;;;;;;17.83;57.62;101475.19;5175461;28;20030;-84
2022/05/27 10:31:53;;;;;;;0.50;0.50;;;;;;;17.74;59.34;101480.91;5178145;28;20060;-82
2022/05/27 10:34:45;;;;;;;0.40;0.40;;;;;;;17.76;58.70;101469.31;5165840;28;20045;-82
2022/05/27 10:37:34;;;;;;;0.60;0.60;;;;;;;17.90;59.53;101475.78;5169156;28;20138;-83
2022/05/27 10:40:38;;;;;;;0.20;0.20;;;;;;;17.91;58.35;101478.34;5199879;28;20049;-83
2022/05/27 10:43:15;;;;;;;0.55;0.55;;;;;;;18.02;55.31;101477.03;5144331;28;20030;-85
2022/05/27 10:45:52;;;;;;;0.40;0.40;;;;;;;18.05;55.41;101484.88;5179686;28;20038;-84
2022/05/27 10:48:47;;;;;;;0.35;0.35;;;;;;;17.99;56.49;101482.47;5158635;28;20549;-83
2022/05/27 10:51:35;;;;;;;0.30;0.30;;;;;;;17.93;55.30;101486.28;5193804;28;20037;-85
2022/05/27 10:54:09;;;;;;;0.40;0.40;;;;;;;17.93;57.23;101489.78;5162914;28;20046;-86
2022/05/27 11:02:04;;;;;;;2.63;1.73;;;;;;;18.11;56.35;101475.72;5172509;28;20021;-82
2022/05/27 11:02:56;;;;;;;0.32;0.32;;;;;;;18.14;57.10;101475.59;5172590;28;20021;-81
2022/05/27 11:05:40;;;;;;;0.57;0.57;;;;;;;18.15;55.78;101480.81;5144369;28;20033;-79
2022/05/27 11:08:21;;;;;;;;;;;;;;;18.05;55.91;101469.78;5170829;28;20029;-82
2022/05/27 11:10:55;;;;;;;0.35;0.35;;;;;;;18.06;56.94;101467.97;5162548;28;20023;-80
2022/05/27 11:16:46;;;;;;;0.30;0.30;;;;;;;18.22;55.02;101465.47;5157639;28;20030;-81
2022/05/27 11:20:02;;;;;;;0.28;0.28;;;;;;;18.34;54.21;101464.03;5176972;28;20045;-81
2022/05/27 11:22:40;;;;;;;2.20;1.30;;;;;;;18.35;51.98;101466.59;5126572;28;20038;-81
2022/05/27 11:25:19;;;;;;;0.43;0.43;;;;;;;18.42;53.72;101461.84;5154046;28;20045;-83
2022/05/27 11:28:08;;;;;;;0.63;0.60;;;;;;;18.64;54.15;101467.00;5154719;28;20029;-80
2022/05/27 11:31:00;;;;;;;0.38;0.38;;;;;;;18.48;54.02;101480.16;5130061;28;20052;-82
2022/05/27 11:33:46;;;;;;;1.33;0.70;;;;;;;18.62;53.90;101478.66;5162310;28;20038;-82
2022/05/27 11:36:27;;;;;;;0.28;0.28;;;;;;;18.61;54.08;101482.22;5186897;28;20073;-79
2022/05/27 11:39:22;;;;;;;1.02;0.93;;;;;;;18.75;52.04;101477.09;5170285;28;20034;-81
2022/05/27 11:42:02;;;;;;;0.30;0.30;;;;;;;18.75;52.23;101473.59;5143365;28;20072;-85
2022/05/27 11:44:38;;;;;;;0.50;0.50;;;;;;;18.77;50.94;101477.88;5160742;28;20033;-80
2022/05/27 11:47:11;;;;;;;0.30;0.30;;;;;;;18.79;48.93;101469.81;5165035;28;20049;-82
2022/05/27 11:49:51;;;;;;;0.45;0.40;;;;;;;18.72;48.27;101463.94;5150374;28;20030;-82
2022/05/27 11:53:03;;;;;;;0.40;0.40;;;;;;;18.78;49.16;101473.41;5172508;28;20456;-80
2022/05/27 11:55:36;;;;;;;1.20;0.75;;;;;;;18.96;46.29;101461.03;5157886;28;20129;-81
2022/05/27 11:58:20;;;;;;;1.75;1.10;;;;;;;18.92;46.08;101448.78;5170540;28;20022;-81
2022/05/27 12:01:03;;;;;;;;;;;;;;;19.00;45.08;101459.94;5145538;28;20074;-80
2022/05/27 12:03:50;;;;;;;0.40;0.40;;;;;;;19.05;46.67;101465.03;5160477;28;19917;-80
2022/05/27 12:06:32;;;;;;;0.63;0.45;;;;;;;19.05;46.13;101471.19;5146551;28;20148;-81
2022/05/27 12:09:13;;;;;;;4.68;1.20;;;;;;;19.13;48.32;101463.69;5194864;23;20045;-88
2022/05/27 12:11:49;;;;;;;0.30;0.30;;;;;;;19.17;47.67;101459.94;5221270;28;20033;-89
2022/05/27 12:14:29;;;;;;;0.40;0.40;;;;;;;19.31;45.86;101463.66;5193522;28;20025;-89
2022/05/27 12:17:02;;;;;;;0.50;0.50;;;;;;;19.46;45.90;101460.19;5169734;28;20051;-89
2022/05/27 12:19:37;;;;;;;0.60;0.60;;;;;;;19.45;45.50;101469.16;5176089;28;20041;-92
2022/05/27 12:22:27;;;;;;;0.43;0.43;;;;;;;19.49;45.77;101465.38;5211808;28;20036;-88
2022/05/27 12:25:16;;;;;;;0.20;0.20;;;;;;;19.54;45.00;101482.91;5189738;28;20041;-89
2022/05/27 12:27:49;;;;;;;3.53;0.82;;;;;;;19.56;44.69;101465.03;5171721;28;20029;-90
2022/05/27 12:30:31;;;;;;;0.32;0.32;;;;;;;19.56;46.37;101471.25;5204617;28;20103;-90
2022/05/27 12:33:02;;;;;;;0.50;0.50;;;;;;;19.71;45.70;101464.22;5167589;28;20040;-90
2022/05/27 12:35:32;;;;;;;0.30;0.30;;;;;;;19.99;44.55;101478.72;5198489;28;20030;-88
2022/05/27 12:38:15;;;;;;;0.40;0.40;;;;;;;19.97;44.95;101469.97;5203956;28;20302;-89
2022/05/27 12:40:50;;;;;;;0.70;0.70;;;;;;;19.99;44.08;101470.75;5202596;28;20045;-92
2022/05/27 12:43:22;;;;;;;9.93;1.02;;;;;;;19.97;42.91;101485.94;5163772;28;20047;-88
2022/05/27 12:46:01;;;;;;;0.60;0.60;;;;;;;19.95;42.88;101482.53;5204596;28;20033;-90